Time;durP1;ratioP1;P1;durP2;ratioP2;P2;SDS_P1;SDS_P2;PMS_P1;PMS_P2;Temp;Humidity;BMP_temperature;BMP_pressure;BME280_temperature;BME280_humidity;BME280_pressure;Samples;Min_cycle;Max_cycle;Signal;HPM_P1;HPM_P2
2022/05/11 06:24:38;;;;;;;;;12.00;8.00;;;;;19.44;100.00;100458.25;6301660;22;46647;31
2022/05/11 06:27:05;;;;;;;;;9.67;9.67;;;;;19.50;100.00;100458.28;6270048;22;46142;-89
2022/05/11 06:29:32;;;;;;;;;10.00;9.67;;;;;19.53;100.00;100446.75;6269178;22;45853;-91
2022/05/11 06:31:57;;;;;;;;;10.33;8.00;;;;;19.63;100.00;100459.22;6241381;22;50317;-89
2022/05/11 06:34:24;;;;;;;;;8.67;8.67;;;;;19.68;100.00;100455.66;6271308;22;45203;-89
2022/05/11 06:36:50;;;;;;;;;8.00;7.67;;;;;19.74;100.00;100456.56;6243671;22;47697;-88
2022/05/11 06:39:15;;;;;;;;;9.67;9.00;;;;;19.83;100.00;100452.16;6243112;22;45581;-88
2022/05/11 06:41:41;;;;;;;;;10.33;9.67;;;;;19.99;100.00;100456.63;6271019;22;45412;-89
2022/05/11 06:44:08;;;;;;;;;8.33;7.67;;;;;20.21;100.00;100461.09;6271049;22;45231;-89
2022/05/11 06:46:34;;;;;;;;;9.33;7.33;;;;;20.38;100.00;100465.56;6242900;22;47093;-89
2022/05/11 06:48:59;;;;;;;;;11.67;9.33;;;;;20.45;100.00;100466.44;6270814;22;45320;-88
2022/05/11 06:51:25;;;;;;;;;11.67;10.33;;;;;20.51;100.00;100467.31;6242897;22;45332;-89
2022/05/11 06:59:30;;;;;;;;;8.00;7.67;;;;;20.74;100.00;100489.53;6270519;22;45326;-89
2022/05/11 07:01:57;;;;;;;;;8.33;7.33;;;;;20.81;100.00;100491.31;6242952;22;45357;-89
2022/05/11 07:04:24;;;;;;;;;7.67;6.67;;;;;20.87;100.00;100499.28;6269236;22;45555;-89
2022/05/11 07:06:53;;;;;;;;;6.00;6.00;;;;;20.89;100.00;100480.63;6270522;22;45215;-90
2022/05/11 07:09:20;;;;;;;;;8.67;7.00;;;;;20.99;100.00;100508.16;6267843;22;45723;-89
2022/05/11 07:14:29;;;;;;;;;8.00;8.00;;;;;21.15;100.00;100508.16;6270660;22;45673;-88
2022/05/11 07:16:54;;;;;;;;;11.67;9.00;;;;;21.24;100.00;100521.47;6242009;22;46989;-88
2022/05/11 07:19:23;;;;;;;;;9.00;9.00;;;;;21.32;100.00;100510.78;6242320;22;45584;-88
2022/05/11 07:21:49;;;;;;;;;8.33;8.33;;;;;21.42;100.00;100519.63;6269921;22;45348;-89
2022/05/11 07:24:14;;;;;;;;;10.00;8.33;;;;;21.51;100.00;100522.28;6242483;22;45500;-89
2022/05/11 07:26:40;;;;;;;;;7.33;5.67;;;;;21.57;100.00;100516.00;6265944;22;50199;-93
2022/05/11 07:29:05;;;;;;;;;8.67;8.67;;;;;21.64;100.00;100512.44;6295396;22;45314;-90
2022/05/11 07:31:30;;;;;;;;;6.67;6.67;;;;;21.73;100.00;100505.25;6268802;22;45368;-91
2022/05/11 07:33:56;;;;;;;;;9.00;7.00;;;;;21.81;100.00;100530.16;6291606;22;45447;-89
2022/05/11 07:36:21;;;;;;;;;9.67;8.00;;;;;21.91;100.00;100524.78;6270063;22;46366;-95
2022/05/11 07:38:47;;;;;;;;;9.00;7.00;;;;;21.98;100.00;100537.25;6294150;22;45529;-89
2022/05/11 07:41:12;;;;;;;;;6.33;6.33;;;;;22.07;100.00;100544.28;6294412;22;45315;-89
2022/05/11 07:43:38;;;;;;;;;7.00;5.67;;;;;22.13;100.00;100543.38;6270633;22;45509;-93
2022/05/11 07:46:03;;;;;;;;;6.33;6.00;;;;;22.23;100.00;100553.13;6272819;22;45345;-92
2022/05/11 07:48:29;;;;;;;;;6.00;6.00;;;;;22.28;100.00;100556.66;6297470;22;45278;-92
2022/05/11 07:50:54;;;;;;;;;7.00;7.00;;;;;22.37;100.00;100554.81;6273115;22;45789;-91
2022/05/11 07:53:20;;;;;;;;;6.33;5.00;;;;;22.43;100.00;100546.75;6294256;22;45394;-92
2022/05/11 07:55:45;;;;;;;;;8.00;8.00;;;;;22.50;100.00;100561.84;6271554;22;45353;-90
2022/05/11 08:00:55;;;;;;;;;6.00;6.00;;;;;22.64;100.00;100575.13;6270434;22;45358;-91
2022/05/11 08:03:21;;;;;;;;;7.67;7.00;;;;;22.69;100.00;100567.03;6294549;22;45575;-90
2022/05/11 08:05:46;;;;;;;;;7.67;6.67;;;;;22.78;100.00;100582.19;6271415;22;46521;-90
2022/05/11 08:08:11;;;;;;;;;6.67;6.67;;;;;22.87;100.00;100590.13;6293310;22;45477;-92
2022/05/11 08:10:40;;;;;;;;;6.33;6.00;;;;;22.95;100.00;100589.16;6291501;22;45545;-93
2022/05/11 08:13:09;;;;;;;;;7.33;7.33;;;;;23.01;100.00;100582.88;6271272;22;45536;-90
2022/05/11 08:15:43;;;;;;;;;6.67;6.67;;;;;23.06;100.00;100581.03;6270838;22;46133;-92
2022/05/11 08:18:09;;;;;;;;;6.33;4.00;;;;;23.18;100.00;100585.38;6270586;22;45668;-92
2022/05/11 08:20:42;;;;;;;;;5.67;5.67;;;;;23.27;100.00;100595.13;6268961;22;45597;-90
2022/05/11 08:23:08;;;;;;;;;5.67;4.00;;;;;23.34;100.00;100588.78;6293193;22;45490;-90
2022/05/11 08:25:36;;;;;;;;;5.00;5.00;;;;;23.40;99.70;100602.09;6271445;22;45403;-92
2022/05/11 08:28:07;;;;;;;;;4.33;4.33;;;;;23.50;99.48;100608.25;6269578;22;45501;-90
2022/05/11 08:33:23;;;;;;;;;4.00;4.00;;;;;23.64;97.75;100626.88;6270723;22;45675;-91
2022/05/11 08:35:51;;;;;;;;;4.33;4.33;;;;;23.72;97.05;100628.56;6294354;22;47185;-92
2022/05/11 08:38:21;;;;;;;;;2.00;2.00;;;;;23.80;96.33;100644.56;6289753;22;45372;-91
2022/05/11 08:41:05;;;;;;;;;4.00;4.00;;;;;23.87;95.41;100652.50;6269870;22;45404;-89
2022/05/11 08:43:33;;;;;;;;;4.33;4.00;;;;;23.94;94.56;100660.50;6293067;22;45329;-89
2022/05/11 08:46:11;;;;;;;;;3.00;3.00;;;;;23.96;94.24;100656.88;6290093;22;48395;-87
2022/05/11 08:48:46;;;;;;;;;3.00;2.33;;;;;24.03;93.05;100681.81;6292363;22;45428;-90
2022/05/11 08:51:25;;;;;;;;;2.00;2.00;;;;;24.11;91.47;100693.34;6266841;22;45433;-91
2022/05/11 08:54:15;;;;;;;;;2.33;2.33;;;;;24.15;91.20;100702.22;6290758;22;45286;-89
2022/05/11 08:56:43;;;;;;;;;3.33;3.00;;;;;24.20;91.07;100699.47;6265363;22;46259;-89
2022/05/11 08:59:16;;;;;;;;;4.00;3.00;;;;;24.25;90.85;100694.94;6269057;22;45565;-89
2022/05/11 09:01:46;;;;;;;;;2.00;2.00;;;;;24.29;89.85;100709.25;6265387;22;45533;-88
2022/05/11 09:04:15;;;;;;;;;2.33;2.33;;;;;24.33;89.63;100717.22;6265696;22;45555;-90
2022/05/11 09:06:44;;;;;;;;;2.00;2.00;;;;;24.40;90.00;100701.97;6268723;22;46047;-89
2022/05/11 09:09:10;;;;;;;;;2.67;2.67;;;;;24.46;90.21;100698.28;6269252;22;45424;-90
2022/05/11 09:11:49;;;;;;;;;4.33;3.00;;;;;24.53;90.18;100691.06;6266678;22;45347;-89
2022/05/11 09:14:37;;;;;;;;;3.33;3.00;;;;;24.63;90.12;100689.13;6269236;22;45420;-89
2022/05/11 09:17:06;;;;;;;;;4.33;3.33;;;;;24.71;89.00;100700.63;6268407;22;45485;-89
2022/05/11 09:19:34;;;;;;;;;3.67;2.00;;;;;24.81;89.49;100703.16;6268576;22;45634;-89
2022/05/11 09:22:14;;;;;;;;;4.00;2.00;;;;;24.86;89.30;100696.84;6292735;22;45354;-89
2022/05/11 09:24:52;;;;;;;;;1.00;1.00;;;;;24.99;89.41;100696.63;6268099;22;45454;-89
2022/05/11 09:27:27;;;;;;;;;1.67;1.67;;;;;25.10;89.21;100705.41;6292711;22;47456;-89
2022/05/11 09:30:16;;;;;;;;;2.67;2.67;;;;;25.25;89.40;100700.72;6269883;22;45232;-90
2022/05/11 09:32:45;;;;;;;;;2.67;2.67;;;;;25.40;87.48;100730.91;6292576;22;45457;-89
2022/05/11 09:35:20;;;;;;;;;3.00;2.67;;;;;25.58;87.58;100728.81;6293578;22;45387;-88
2022/05/11 09:38:14;;;;;;;;;3.00;3.00;;;;;26.10;88.04;100718.91;6268185;22;46164;-89
2022/05/11 09:40:57;;;;;;;;;4.00;2.00;;;;;27.58;87.81;100726.31;6249675;22;46094;-89
2022/05/11 09:43:36;;;;;;;;;3.00;3.00;;;;;28.32;85.21;100754.88;6293658;22;45338;-88
2022/05/11 09:46:34;;;;;;;;;2.00;1.00;;;;;28.64;84.59;100762.06;6269605;22;45296;-89
2022/05/11 09:49:05;;;;;;;;;2.00;2.00;;;;;28.83;83.37;100769.63;6202815;22;47124;-90
2022/05/11 09:51:40;;;;;;;;;1.00;1.00;;;;;29.59;83.06;100759.97;6203885;22;45755;-90
2022/05/11 09:54:18;;;;;;;;;2.33;2.33;;;;;31.49;83.46;100778.13;6204454;22;45553;-90
2022/05/11 09:57:11;;;;;;;;;4.00;4.00;;;;;34.09;78.06;100848.50;6203615;22;45353;-90
2022/05/11 09:59:51;;;;;;;;;3.00;2.00;;;;;36.38;77.27;100912.03;6204055;22;45929;-89
2022/05/11 10:02:19;;;;;;;;;1.67;1.67;;;;;38.62;75.31;100939.50;6177592;22;45432;-90
2022/05/11 10:04:55;;;;;;;;;4.33;2.33;;;;;40.55;70.71;100963.69;6204118;22;45321;-90
2022/05/11 10:07:22;;;;;;;;;1.33;1.33;;;;;42.24;66.19;100968.25;6203984;22;45441;-89
2022/05/11 10:09:53;;;;;;;;;2.33;2.33;;;;;43.72;60.70;100982.84;6178623;22;47026;-90
2022/05/11 10:12:26;;;;;;;;;2.00;2.00;;;;;44.76;58.56;100997.03;6205165;22;45425;-88
2022/05/11 10:23:29;;;;;;;;;1.67;1.67;;;;;48.71;50.23;101003.81;6206128;22;45279;-90
2022/05/11 10:26:02;;;;;;;;;3.00;2.00;;;;;49.38;46.86;101005.50;6269543;22;45424;-88
2022/05/11 10:28:45;;;;;;;;;2.00;2.00;;;;;49.73;46.12;101003.19;6270545;22;45333;-89
2022/05/11 10:31:26;;;;;;;;;4.67;1.00;;;;;50.22;44.72;101000.16;6270123;22;45686;-89
2022/05/11 10:34:09;;;;;;;;;4.00;3.00;;;;;50.71;41.90;101006.28;6267980;22;45306;-91
2022/05/11 10:36:44;;;;;;;;;1.00;1.00;;;;;51.12;42.16;100995.69;6294147;22;45505;-89
2022/05/11 10:39:14;;;;;;;;;2.33;1.00;;;;;51.46;40.88;101001.66;6270318;22;45316;-89
2022/05/11 10:42:00;;;;;;;;;1.00;1.00;;;;;51.80;40.94;100995.53;6268437;22;46742;-90
2022/05/11 10:44:49;;;;;;;;;1.00;0.67;;;;;52.42;41.77;100997.78;6294307;22;45576;-91
2022/05/11 10:47:25;;;;;;;;;2.00;2.00;;;;;52.77;39.15;100996.03;6206424;22;45453;-92
2022/05/11 10:50:18;;;;;;;;;0.00;0.00;;;;;52.95;39.74;100995.50;6181432;22;45373;-90
2022/05/11 10:52:55;;;;;;;;;1.00;1.00;;;;;53.40;38.92;100999.78;6210009;22;45443;-91
2022/05/11 10:55:41;;;;;;;;;0.00;0.00;;;;;53.84;37.46;100994.63;6180931;22;45344;-93
2022/05/11 10:58:22;;;;;;;;;1.00;1.00;;;;;54.00;36.76;100986.88;6205668;22;45507;-91
2022/05/11 11:00:54;;;;;;;;;2.00;2.00;;;;;54.25;35.92;100988.16;6180784;22;45726;-92
2022/05/11 11:03:25;;;;;;;;;1.33;1.33;;;;;54.53;36.65;100987.03;6206922;22;46572;-93
2022/05/11 11:09:18;;;;;;;;;3.00;3.00;;;;;55.25;33.83;100981.53;6207213;22;45279;-93
2022/05/11 11:11:52;;;;;;;;;2.00;2.00;;;;;55.46;34.54;100983.16;6207640;22;45352;-94
2022/05/11 11:14:29;;;;;;;;;3.00;3.00;;;;;55.65;34.72;100979.56;6207321;22;47907;-92
2022/05/11 11:16:56;;;;;;;;;3.00;3.00;;;;;55.91;34.68;100969.16;6207211;22;45370;-93
2022/05/11 11:19:22;;;;;;;;;1.00;1.00;;;;;56.15;33.51;100972.19;6181286;22;45338;-89
2022/05/11 11:21:47;;;;;;;;;2.33;2.33;;;;;56.23;33.50;100966.25;6206343;22;45386;-93
2022/05/11 11:24:17;;;;;;;;;2.00;2.00;;;;;55.86;33.56;100977.44;6219945;22;46757;-93
2022/05/11 11:26:50;;;;;;;;;1.33;1.33;;;;;55.88;33.27;100966.81;6271049;22;45251;-93
2022/05/11 11:29:19;;;;;;;;;3.00;2.00;;;;;55.96;33.19;100974.97;6271595;22;45262;-94
2022/05/11 11:31:56;;;;;;;;;1.00;1.00;;;;;56.09;32.57;100975.94;6274433;22;45172;-93
2022/05/11 11:34:25;;;;;;;;;2.00;1.00;;;;;56.27;32.44;100969.50;6274776;22;45420;-92
2022/05/11 11:36:52;;;;;;;;;1.00;1.00;;;;;56.55;32.65;100964.41;6275263;22;45702;-93
2022/05/11 11:39:56;;;;;;;;;1.00;1.00;;;;;56.90;32.20;100972.22;6296465;22;45482;-93
2022/05/11 11:42:43;;;;;;;;;1.00;0.00;;;;;57.01;31.91;100972.50;6294940;22;45459;-93
2022/05/11 11:45:31;;;;;;;;;2.00;2.00;;;;;57.34;31.60;100962.72;6295442;22;47027;-94
2022/05/11 11:48:22;;;;;;;;;1.67;1.67;;;;;57.49;31.78;100962.25;6269561;22;45365;-95
2022/05/11 11:50:49;;;;;;;;;1.33;1.33;;;;;57.58;31.11;100959.09;6270043;22;45258;-92
2022/05/11 11:53:33;;;;;;;;;1.00;0.00;;;;;57.85;30.58;100971.84;6273247;22;45295;-91
2022/05/11 11:56:25;;;;;;;;;1.00;1.00;;;;;57.98;30.53;100963.16;6276268;22;47940;-94
2022/05/11 11:59:04;;;;;;;;;0.33;0.33;;;;;57.81;29.50;100960.22;6205349;22;46002;-93
2022/05/11 12:01:33;;;;;;;;;0.33;0.33;;;;;57.86;29.81;100957.53;6202442;22;45436;-93
2022/05/11 12:04:05;;;;;;;;;1.00;0.00;;;;;58.11;29.89;100958.34;6205824;22;45723;-93
2022/05/11 12:15:03;;;;;;;;;0.67;0.67;;;;;59.80;29.85;100948.03;6207341;22;45346;-92
2022/05/11 12:17:38;;;;;;;;;0.00;0.00;;;;;60.30;29.17;100943.63;6205668;22;46107;-93
2022/05/11 12:20:13;;;;;;;;;0.00;0.00;;;;;60.77;27.83;100947.06;6206181;22;45276;-92
2022/05/11 12:22:41;;;;;;;;;0.00;0.00;;;;;61.06;27.62;100946.78;6207367;22;45515;-93
2022/05/11 12:25:11;;;;;;;;;1.00;1.00;;;;;61.08;26.62;100952.19;6181027;22;45457;-95
2022/05/11 12:27:37;;;;;;;;;1.00;0.00;;;;;60.97;27.26;100939.91;6206882;22;45986;-92
2022/05/11 12:30:08;;;;;;;;;1.00;0.00;;;;;61.17;27.70;100955.38;6182479;22;45288;-94
2022/05/11 12:32:37;;;;;;;;;0.00;0.00;;;;;61.32;27.42;100951.88;6206497;22;45469;-95
2022/05/11 12:35:29;;;;;;;;;1.00;1.00;;;;;61.61;26.79;100960.03;6222121;22;45347;-93
2022/05/11 12:38:10;;;;;;;;;0.00;0.00;;;;;61.61;26.97;100953.50;6265174;22;47601;-93
2022/05/11 12:40:48;;;;;;;;;0.33;0.33;;;;;61.74;26.58;100957.84;6271558;22;45317;-94
2022/05/11 12:43:25;;;;;;;;;1.00;1.00;;;;;61.72;26.77;100946.78;6271016;22;45347;-95
2022/05/11 12:45:53;;;;;;;;;0.00;0.00;;;;;61.90;25.81;100956.84;6271598;22;45344;-93
2022/05/11 12:48:27;;;;;;;;;0.00;0.00;;;;;61.87;26.35;100948.88;6270392;22;45457;-91
2022/05/11 12:51:06;;;;;;;;;0.00;0.00;;;;;61.95;25.67;100943.78;6270938;22;45387;-92
2022/05/11 12:53:38;;;;;;;;;0.00;0.00;;;;;62.38;26.01;100949.38;6294050;22;45356;-93
2022/05/11 12:56:18;;;;;;;;;0.00;0.00;;;;;62.92;26.21;100942.75;6270478;22;45305;-92
2022/05/11 12:58:53;;;;;;;;;0.00;0.00;;;;;63.43;25.61;100944.75;6294845;22;47269;-93
2022/05/11 13:01:22;;;;;;;;;0.00;0.00;;;;;63.84;25.12;100940.13;6271045;22;45318;-93
2022/05/11 13:03:50;;;;;;;;;0.00;0.00;;;;;64.26;24.98;100933.47;6293886;22;45374;-92
2022/05/11 13:06:24;;;;;;;;;0.00;0.00;;;;;64.72;23.76;100949.41;6295113;22;45643;-93
2022/05/11 13:08:54;;;;;;;;;0.00;0.00;;;;;64.95;24.73;100946.16;6268666;22;47667;-92
2022/05/11 13:11:23;;;;;;;;;0.00;0.00;;;;;65.52;25.11;100951.34;6270836;22;45343;-93
2022/05/11 13:13:54;;;;;;;;;0.67;0.67;;;;;66.24;24.42;100941.41;6294678;22;45297;-94
2022/05/11 13:16:33;;;;;;;;;0.00;0.00;;;;;66.59;24.27;100952.63;6295049;22;45427;-94
2022/05/11 13:19:24;;;;;;;;;0.33;0.33;;;;;66.69;22.87;100954.47;6293937;22;47040;-93
2022/05/11 13:21:50;;;;;;;;;0.00;0.00;;;;;65.85;23.42;100941.28;6282809;22;45639;-95
2022/05/11 13:24:36;;;;;;;;;0.00;0.00;;;;;65.58;23.92;100929.28;6270715;22;45353;-93
2022/05/11 13:27:01;;;;;;;;;0.00;0.00;;;;;66.14;24.19;100942.38;6294792;22;45353;-94
2022/05/11 13:29:28;;;;;;;;;0.00;0.00;;;;;66.76;23.93;100943.50;6270078;22;45462;-93
2022/05/11 13:32:00;;;;;;;;;1.00;0.25;;;;;67.45;24.05;100935.47;6271495;22;45240;-94
2022/05/11 13:34:36;;;;;;;;;0.00;0.00;;;;;67.52;24.10;100935.88;6270469;22;45371;-95
2022/05/11 13:37:03;;;;;;;;;1.25;0.00;;;;;66.95;23.16;100932.03;6270652;22;45460;-94
2022/05/11 13:39:34;;;;;;;;;0.00;0.00;;;;;66.48;23.17;100934.78;6270269;22;45681;-93
2022/05/11 13:42:19;;;;;;;;;0.00;0.00;;;;;65.60;23.29;100924.13;6270894;22;45557;-94
2022/05/11 13:44:52;;;;;;;;;0.75;0.00;;;;;65.86;23.18;100929.56;6295177;22;45399;-94
2022/05/11 13:50:25;;;;;;;;;0.00;0.00;;;;;64.60;22.87;100920.44;6271388;22;45446;-93
2022/05/11 13:53:05;;;;;;;;;0.00;0.00;;;;;64.97;23.31;100930.44;6268476;22;45287;-91
2022/05/11 13:55:38;;;;;;;;;0.75;0.00;;;;;64.88;23.17;100921.66;6268791;22;45302;-94
2022/05/11 13:58:28;;;;;;;;;0.00;0.00;;;;;64.97;23.30;100924.72;6294241;22;45264;-92
2022/05/11 14:00:57;;;;;;;;;0.00;0.00;;;;;65.05;23.23;100902.44;6295162;22;48239;-95
2022/05/11 14:03:27;;;;;;;;;0.00;0.00;;;;;64.94;23.17;100913.91;6265262;22;45670;-94
2022/05/11 14:05:54;;;;;;;;;0.00;0.00;;;;;64.59;22.97;100913.03;6271759;22;45711;-94
2022/05/11 14:08:19;;;;;;;;;0.00;0.00;;;;;64.29;23.24;100907.22;6294493;22;45598;-94
2022/05/11 14:10:44;;;;;;;;;0.00;0.00;;;;;64.10;23.82;100920.09;6270181;22;55439;-93
2022/05/11 14:13:10;;;;;;;;;0.00;0.00;;;;;63.84;23.12;100894.59;6269889;22;45447;-93
2022/05/11 14:15:35;;;;;;;;;0.00;0.00;;;;;63.61;23.49;100896.91;6270823;22;45471;-89
2022/05/11 14:18:00;;;;;;;;;0.00;0.00;;;;;63.59;23.28;100893.47;6294050;22;45511;-96
2022/05/11 14:20:27;;;;;;;;;0.00;0.00;;;;;63.62;23.55;100889.22;6270066;22;45527;-94
2022/05/11 14:22:53;;;;;;;;;0.00;0.00;;;;;63.37;24.21;100893.84;6293795;22;45408;-94
2022/05/11 14:25:20;;;;;;;;;0.00;0.00;;;;;63.25;23.93;100886.44;6269761;22;45272;-92
2022/05/11 14:27:46;;;;;;;;;0.00;0.00;;;;;63.14;23.88;100882.75;6269953;22;45350;-93
2022/05/11 14:30:14;;;;;;;;;0.00;0.00;;;;;63.08;24.17;100875.34;6270259;22;46672;-94
2022/05/11 14:32:44;;;;;;;;;1.00;0.00;;;;;62.92;23.83;100875.34;6269699;22;45455;-93
2022/05/11 14:35:14;;;;;;;;;0.00;0.00;;;;;62.50;23.51;100882.97;6270554;22;45309;-95
2022/05/11 14:37:40;;;;;;;;;0.25;0.00;;;;;62.31;24.53;100889.16;6293306;22;45783;-92
2022/05/11 14:40:09;;;;;;;;;0.00;0.00;;;;;62.24;23.94;100890.28;6269378;22;46313;-92
2022/05/11 14:42:34;;;;;;;;;0.00;0.00;;;;;61.96;24.44;100889.59;6293168;22;45335;-91
2022/05/11 14:45:01;;;;;;;;;0.00;0.00;;;;;61.15;24.31;100890.44;6269704;22;45242;-94
2022/05/11 14:47:27;;;;;;;;;0.00;0.00;;;;;58.93;24.77;100876.44;6269187;22;45908;-93
2022/05/11 14:49:53;;;;;;;;;0.00;0.00;;;;;56.08;25.37;100890.66;6294245;22;48079;-92
2022/05/11 14:52:18;;;;;;;;;0.00;0.00;;;;;53.06;27.09;100891.22;6293365;22;45382;-94
2022/05/11 14:54:44;;;;;;;;;0.00;0.00;;;;;50.22;28.16;100894.13;6294421;22;45403;-92
2022/05/11 15:02:38;;;;;;;;;0.00;0.00;;;;;43.55;33.50;100889.50;6270822;22;45300;-93
2022/05/11 15:05:06;;;;;;;;;0.00;0.00;;;;;42.05;34.70;100889.09;6271262;22;45268;-92
2022/05/11 15:07:32;;;;;;;;;0.33;0.33;;;;;40.80;36.75;100892.94;6294815;22;45532;-92
2022/05/11 15:09:57;;;;;;;;;0.00;0.00;;;;;39.68;38.35;100876.00;6271486;22;45429;-91
2022/05/11 15:15:08;;;;;;;;;0.00;0.00;;;;;37.99;40.66;100889.88;6271931;22;45266;-94
2022/05/11 15:17:33;;;;;;;;;0.33;0.33;;;;;37.38;41.63;100884.81;6295908;22;45223;-93
2022/05/11 15:20:01;;;;;;;;;2.00;0.00;;;;;36.76;43.40;100880.53;6273271;22;46235;-93
2022/05/11 15:22:27;;;;;;;;;1.00;1.00;;;;;36.20;43.74;100887.63;6275063;22;45479;-94
2022/05/11 15:24:53;;;;;;;;;2.00;2.00;;;;;35.70;45.39;100876.91;6299637;22;45316;-94
2022/05/11 15:27:18;;;;;;;;;0.00;0.00;;;;;35.30;46.36;100883.75;6297301;22;45337;-95
2022/05/11 15:29:44;;;;;;;;;1.67;1.67;;;;;34.93;46.60;100878.53;6295649;22;48116;-92
2022/05/11 15:32:24;;;;;;;;;2.67;1.33;;;;;34.59;47.65;100888.56;6271748;22;45410;-93
2022/05/11 15:34:50;;;;;;;;;0.00;0.00;;;;;34.25;49.27;100877.63;6295809;22;45290;-92
2022/05/11 15:37:17;;;;;;;;;8.33;6.33;;;;;33.86;49.50;100872.38;6295541;22;45286;-93
2022/05/11 15:39:42;;;;;;;;;12.67;8.33;;;;;33.45;50.45;100883.41;6271950;22;46145;-93
2022/05/11 15:42:11;;;;;;;;;9.33;2.00;;;;;33.10;50.96;100873.28;6296378;22;45448;-94
2022/05/11 15:44:39;;;;;;;;;5.00;2.67;;;;;32.76;52.12;100877.59;6272216;22;45316;-92
2022/05/11 15:47:07;;;;;;;;;2.00;2.00;;;;;32.44;53.37;100884.44;6296426;22;45278;-90
2022/05/11 15:49:32;;;;;;;;;2.00;0.00;;;;;32.16;53.02;100877.53;6271404;22;46487;-94
2022/05/11 15:51:58;;;;;;;;;3.00;2.00;;;;;31.95;53.88;100880.19;6272489;22;45324;-93
2022/05/11 15:54:25;;;;;;;;;0.00;0.00;;;;;31.71;55.31;100874.88;6295832;22;45363;-92
2022/05/11 15:56:50;;;;;;;;;1.67;1.00;;;;;31.45;56.08;100882.22;6272528;22;45640;-93
2022/05/11 15:59:16;;;;;;;;;3.67;2.33;;;;;31.16;56.86;100877.03;6296042;22;47804;-93
2022/05/11 16:01:43;;;;;;;;;0.67;0.67;;;;;30.88;56.47;100881.69;6275425;22;45343;-96
2022/05/11 16:04:09;;;;;;;;;0.00;0.00;;;;;30.62;57.24;100867.31;6299837;22;45138;-95
2022/05/11 16:06:35;;;;;;;;;0.33;0.33;;;;;30.39;58.40;100866.34;6275876;22;45224;-95
2022/05/11 16:09:01;;;;;;;;;1.67;1.00;;;;;30.15;59.14;100860.88;6273290;22;45387;-93
2022/05/11 16:11:33;;;;;;;;;0.33;0.33;;;;;29.92;58.82;100864.38;6300519;22;45342;-91
2022/05/11 16:14:00;;;;;;;;;4.33;1.67;;;;;29.71;60.20;100847.91;6270805;22;45481;-90
2022/05/11 16:16:25;;;;;;;;;1.00;1.00;;;;;29.56;61.40;100840.25;6270656;22;45425;-88
2022/05/11 16:21:37;;;;;;;;;1.00;1.00;;;;;29.19;62.14;100827.97;6269321;22;45602;-88
2022/05/11 16:24:04;;;;;;;;;1.00;1.00;;;;;29.07;62.35;100823.81;6268549;22;45364;-88
2022/05/11 16:26:29;;;;;;;;;0.33;0.33;;;;;28.92;62.79;100831.44;6269220;22;45594;-88
2022/05/11 16:28:56;;;;;;;;;0.00;0.00;;;;;28.80;64.00;100815.63;6293408;22;47358;-88
2022/05/11 16:31:22;;;;;;;;;0.00;0.00;;;;;28.69;63.62;100827.63;6293351;22;45341;-89
2022/05/11 16:33:49;;;;;;;;;0.00;0.00;;;;;28.59;64.48;100813.53;6293076;22;45349;-88
2022/05/11 16:36:15;;;;;;;;;1.33;1.00;;;;;28.49;65.96;100787.72;6267211;22;45303;-89
2022/05/11 16:38:41;;;;;;;;;2.00;1.00;;;;;28.36;64.91;100806.06;6293080;22;47921;-88
2022/05/11 16:41:08;;;;;;;;;0.00;0.00;;;;;28.27;65.59;100813.47;6268504;22;45642;-89
2022/05/11 16:43:34;;;;;;;;;1.33;0.33;;;;;28.16;65.67;100818.31;6269092;22;45335;-89
2022/05/11 16:45:59;;;;;;;;;0.00;0.00;;;;;28.00;65.65;100810.63;6269847;22;45496;-88
2022/05/11 16:48:25;;;;;;;;;1.33;1.33;;;;;27.89;66.24;100802.81;6293229;22;47448;-88
2022/05/11 16:50:51;;;;;;;;;0.67;0.00;;;;;27.85;67.04;100790.38;6270080;22;45368;-89
2022/05/11 16:53:17;;;;;;;;;2.33;0.00;;;;;27.78;67.12;100803.09;6268838;22;45649;-90
2022/05/11 16:55:45;;;;;;;;;0.00;0.00;;;;;27.65;66.85;100808.78;6291402;22;45619;-89
2022/05/11 16:58:10;;;;;;;;;0.67;0.00;;;;;27.48;67.97;100795.75;6266582;22;48084;-89
2022/05/11 17:00:35;;;;;;;;;0.00;0.00;;;;;27.35;67.89;100797.88;6293596;22;45922;-86
2022/05/11 17:03:09;;;;;;;;;1.00;1.00;;;;;27.22;68.10;100803.56;6267640;22;45397;-87
2022/05/11 17:05:35;;;;;;;;;0.00;0.00;;;;;27.15;67.70;100801.03;6269265;22;45316;-83
2022/05/11 17:08:00;;;;;;;;;1.00;1.00;;;;;27.00;67.87;100813.91;6269199;22;50196;-86
2022/05/11 17:10:26;;;;;;;;;0.00;0.00;;;;;26.90;67.96;100818.63;6270600;22;45370;-92
2022/05/11 17:12:51;;;;;;;;;0.33;0.33;;;;;26.81;68.52;100817.00;6295361;22;45357;-96
2022/05/11 17:15:18;;;;;;;;;0.00;0.00;;;;;26.70;68.03;100814.53;6295629;22;45570;-92
2022/05/11 17:17:43;;;;;;;;;2.00;2.00;;;;;26.62;68.93;100801.25;6269512;22;46196;-91
2022/05/11 17:20:10;;;;;;;;;1.33;1.00;;;;;26.55;69.56;100791.53;6294801;22;45457;-94
2022/05/11 17:22:36;;;;;;;;;0.00;0.00;;;;;26.48;69.20;100798.88;6294330;22;45730;-90
2022/05/11 17:25:03;;;;;;;;;0.33;0.33;;;;;26.36;69.34;100799.09;6292980;22;45566;-90
2022/05/11 17:27:28;;;;;;;;;0.00;0.00;;;;;26.28;70.06;100792.06;6304515;22;47197;-96
2022/05/11 17:29:53;;;;;;;;;0.33;0.33;;;;;26.20;70.79;100791.31;6304951;22;45278;-93
2022/05/11 17:32:19;;;;;;;;;0.33;0.00;;;;;26.11;70.35;100790.59;6302028;22;45250;-95
2022/05/11 17:34:44;;;;;;;;;0.00;0.00;;;;;26.04;70.85;100785.34;6275440;22;45473;-92
2022/05/11 17:37:10;;;;;;;;;0.00;0.00;;;;;25.98;70.92;100795.31;6273598;22;45255;-90
2022/05/11 17:39:35;;;;;;;;;0.00;0.00;;;;;25.91;70.78;100793.66;6276524;22;45237;-95
2022/05/11 17:42:01;;;;;;;;;1.00;1.00;;;;;25.83;72.01;100774.06;6276432;22;45468;-92
2022/05/11 17:44:26;;;;;;;;;0.00;0.00;;;;;25.73;71.35;100785.00;6270309;22;45309;-89
2022/05/11 17:46:51;;;;;;;;;0.33;0.33;;;;;25.63;71.54;100789.63;6293721;22;48244;-90
2022/05/11 17:49:17;;;;;;;;;2.33;1.00;;;;;25.61;72.30;100785.19;6269061;22;45628;-89
2022/05/11 17:51:42;;;;;;;;;0.00;0.00;;;;;25.55;72.93;100756.63;6293761;22;45798;-89
2022/05/11 17:54:10;;;;;;;;;0.00;0.00;;;;;25.52;72.28;100762.94;6268766;22;45345;-89
2022/05/11 17:56:35;;;;;;;;;0.00;0.00;;;;;25.46;72.79;100762.16;6293022;22;47219;-90
2022/05/11 17:59:01;;;;;;;;;2.67;0.00;;;;;25.39;73.67;100734.50;6293024;22;45320;-90
2022/05/11 18:01:27;;;;;;;;;0.67;0.67;;;;;25.36;73.02;100758.75;6268848;22;45310;-92
2022/05/11 18:03:52;;;;;;;;;0.67;0.67;;;;;25.31;73.34;100759.69;6294976;22;45537;-87
2022/05/11 18:06:17;;;;;;;;;1.00;1.00;;;;;25.24;73.95;100752.66;6269277;22;45367;-91
2022/05/11 18:08:43;;;;;;;;;0.00;0.00;;;;;25.18;74.06;100745.56;6269006;22;45424;-90
2022/05/11 18:11:09;;;;;;;;;2.00;2.00;;;;;25.14;74.09;100751.91;6269096;22;45294;-90
2022/05/11 18:13:34;;;;;;;;;0.00;0.00;;;;;25.10;74.39;100740.31;6269673;22;45184;-89
2022/05/11 18:16:00;;;;;;;;;2.33;1.67;;;;;25.07;75.18;100736.81;6269109;22;45599;-94
2022/05/11 18:18:26;;;;;;;;;0.00;0.00;;;;;24.99;74.50;100747.63;6292602;22;50159;-91
2022/05/11 18:20:51;;;;;;;;;0.33;0.33;;;;;24.94;74.81;100738.78;6267350;22;45470;-90
2022/05/11 18:23:19;;;;;;;;;0.00;0.00;;;;;24.89;74.77;100745.06;6268121;22;45408;-91
2022/05/11 18:25:45;;;;;;;;;0.33;0.00;;;;;24.85;75.92;100731.72;6268528;22;45328;-89
2022/05/11 18:28:20;;;;;;;;;0.00;0.00;;;;;24.83;75.72;100723.72;6293069;22;45372;-88
2022/05/11 18:30:46;;;;;;;;;3.67;2.67;;;;;24.76;76.21;100712.19;6270900;22;45325;-89
2022/05/11 18:33:13;;;;;;;;;1.00;1.00;;;;;24.74;76.66;100702.38;6292801;22;45511;-90
2022/05/11 18:35:38;;;;;;;;;0.00;0.00;;;;;24.66;77.18;100689.09;6294488;22;47994;-91
2022/05/11 18:38:04;;;;;;;;;0.67;0.67;;;;;24.59;76.93;100715.09;6269527;22;45357;-92
2022/05/11 18:40:30;;;;;;;;;0.33;0.33;;;;;24.51;76.55;100717.00;6294277;22;45336;-91
2022/05/11 18:42:55;;;;;;;;;0.33;0.33;;;;;24.49;76.95;100714.34;6294635;22;45301;-91
2022/05/11 18:45:21;;;;;;;;;1.00;1.00;;;;;24.40;76.90;100712.69;6271253;22;45572;-90
2022/05/11 18:47:47;;;;;;;;;0.67;0.67;;;;;24.36;77.38;100710.03;6293893;22;46253;-89
2022/05/11 18:50:13;;;;;;;;;0.00;0.00;;;;;24.33;78.23;100693.09;6270492;22;45412;-91